sensor_id;sensor_type;location;lat;lon;timestamp;P1;durP1;ratioP1;P2;durP2;ratioP2
51558;SDS011;61650;48.882;2.092;2022-11-20T00:00:28;8.27;;;7.20;;
51558;SDS011;61650;48.882;2.092;2022-11-20T00:02:53;8.07;;;6.67;;
51558;SDS011;61650;48.882;2.092;2022-11-20T00:05:19;8.30;;;6.90;;
51558;SDS011;61650;48.882;2.092;2022-11-20T00:07:45;11.10;;;7.28;;
51558;SDS011;61650;48.882;2.092;2022-11-20T00:10:11;9.13;;;6.80;;
51558;SDS011;61650;48.882;2.092;2022-11-20T00:12:37;8.57;;;7.10;;
51558;SDS011;61650;48.882;2.092;2022-11-20T00:15:03;10.83;;;6.77;;
51558;SDS011;61650;48.882;2.092;2022-11-20T00:17:29;10.93;;;6.85;;
51558;SDS011;61650;48.882;2.092;2022-11-20T00:19:54;8.50;;;6.87;;
51558;SDS011;61650;48.882;2.092;2022-11-20T00:22:20;15.30;;;7.57;;
51558;SDS011;61650;48.882;2.092;2022-11-20T00:24:46;9.80;;;6.63;;
51558;SDS011;61650;48.882;2.092;2022-11-20T00:27:11;8.00;;;7.07;;
51558;SDS011;61650;48.882;2.092;2022-11-20T00:29:37;10.30;;;6.70;;
51558;SDS011;61650;48.882;2.092;2022-11-20T00:32:02;8.80;;;6.50;;
51558;SDS011;61650;48.882;2.092;2022-11-20T00:34:28;10.67;;;7.57;;
51558;SDS011;61650;48.882;2.092;2022-11-20T00:36:54;9.23;;;7.10;;
51558;SDS011;61650;48.882;2.092;2022-11-20T00:39:19;11.80;;;6.83;;
51558;SDS011;61650;48.882;2.092;2022-11-20T00:41:45;8.37;;;6.33;;
51558;SDS011;61650;48.882;2.092;2022-11-20T00:44:10;9.47;;;6.10;;
51558;SDS011;61650;48.882;2.092;2022-11-20T00:46:36;8.00;;;5.77;;
51558;SDS011;61650;48.882;2.092;2022-11-20T00:49:01;8.87;;;6.27;;
51558;SDS011;61650;48.882;2.092;2022-11-20T00:51:27;7.90;;;5.40;;
51558;SDS011;61650;48.882;2.092;2022-11-20T00:53:56;8.67;;;5.50;;
51558;SDS011;61650;48.882;2.092;2022-11-20T00:56:23;6.60;;;5.28;;
51558;SDS011;61650;48.882;2.092;2022-11-20T00:58:49;8.20;;;5.20;;
51558;SDS011;61650;48.882;2.092;2022-11-20T01:01:15;7.87;;;6.10;;
51558;SDS011;61650;48.882;2.092;2022-11-20T01:03:44;6.35;;;5.75;;
51558;SDS011;61650;48.882;2.092;2022-11-20T01:06:21;7.20;;;4.55;;
51558;SDS011;61650;48.882;2.092;2022-11-20T01:08:48;8.20;;;5.00;;
51558;SDS011;61650;48.882;2.092;2022-11-20T01:11:19;8.82;;;5.15;;
51558;SDS011;61650;48.882;2.092;2022-11-20T01:13:47;5.18;;;4.68;;
51558;SDS011;61650;48.882;2.092;2022-11-20T01:16:19;9.82;;;4.90;;
51558;SDS011;61650;48.882;2.092;2022-11-20T01:18:48;6.28;;;4.90;;
51558;SDS011;61650;48.882;2.092;2022-11-20T01:21:16;7.07;;;5.30;;
51558;SDS011;61650;48.882;2.092;2022-11-20T01:23:44;6.95;;;4.95;;
51558;SDS011;61650;48.882;2.092;2022-11-20T01:26:11;6.35;;;4.70;;
51558;SDS011;61650;48.882;2.092;2022-11-20T01:28:39;8.13;;;5.70;;
51558;SDS011;61650;48.882;2.092;2022-11-20T01:31:12;10.73;;;5.88;;
51558;SDS011;61650;48.882;2.092;2022-11-20T01:33:43;5.93;;;4.93;;
51558;SDS011;61650;48.882;2.092;2022-11-20T01:36:09;6.55;;;4.55;;
51558;SDS011;61650;48.882;2.092;2022-11-20T01:38:36;6.05;;;4.47;;
51558;SDS011;61650;48.882;2.092;2022-11-20T01:41:02;6.37;;;5.63;;
51558;SDS011;61650;48.882;2.092;2022-11-20T01:43:28;7.10;;;5.18;;
51558;SDS011;61650;48.882;2.092;2022-11-20T01:46:05;9.33;;;5.23;;
51558;SDS011;61650;48.882;2.092;2022-11-20T01:51:15;6.80;;;5.35;;
51558;SDS011;61650;48.882;2.092;2022-11-20T01:53:50;8.98;;;5.35;;
51558;SDS011;61650;48.882;2.092;2022-11-20T01:56:18;8.40;;;4.82;;
51558;SDS011;61650;48.882;2.092;2022-11-20T01:58:46;6.47;;;4.87;;
51558;SDS011;61650;48.882;2.092;2022-11-20T02:01:14;8.70;;;4.75;;
51558;SDS011;61650;48.882;2.092;2022-11-20T02:03:40;7.40;;;4.63;;
51558;SDS011;61650;48.882;2.092;2022-11-20T02:06:10;7.15;;;4.50;;
51558;SDS011;61650;48.882;2.092;2022-11-20T02:08:56;6.60;;;4.90;;
51558;SDS011;61650;48.882;2.092;2022-11-20T02:11:22;6.87;;;5.20;;
51558;SDS011;61650;48.882;2.092;2022-11-20T02:13:47;5.90;;;4.97;;
51558;SDS011;61650;48.882;2.092;2022-11-20T02:16:22;6.60;;;4.57;;
51558;SDS011;61650;48.882;2.092;2022-11-20T02:18:50;6.38;;;5.00;;
51558;SDS011;61650;48.882;2.092;2022-11-20T02:21:32;8.98;;;4.78;;
51558;SDS011;61650;48.882;2.092;2022-11-20T02:24:12;7.97;;;4.47;;
51558;SDS011;61650;48.882;2.092;2022-11-20T02:29:08;7.15;;;4.90;;
51558;SDS011;61650;48.882;2.092;2022-11-20T02:31:38;8.17;;;4.33;;
51558;SDS011;61650;48.882;2.092;2022-11-20T02:34:06;7.60;;;4.60;;
51558;SDS011;61650;48.882;2.092;2022-11-20T02:36:33;7.00;;;4.43;;
51558;SDS011;61650;48.882;2.092;2022-11-20T02:39:01;5.85;;;3.95;;
51558;SDS011;61650;48.882;2.092;2022-11-20T02:41:34;7.78;;;4.25;;
51558;SDS011;61650;48.882;2.092;2022-11-20T02:44:02;9.88;;;4.10;;
51558;SDS011;61650;48.882;2.092;2022-11-20T02:46:28;3.78;;;3.40;;
51558;SDS011;61650;48.882;2.092;2022-11-20T02:48:54;5.10;;;3.42;;
51558;SDS011;61650;48.882;2.092;2022-11-20T02:51:20;7.20;;;4.50;;
51558;SDS011;61650;48.882;2.092;2022-11-20T02:53:47;5.22;;;3.75;;
51558;SDS011;61650;48.882;2.092;2022-11-20T02:56:12;4.93;;;3.60;;
51558;SDS011;61650;48.882;2.092;2022-11-20T02:58:38;6.63;;;3.60;;
51558;SDS011;61650;48.882;2.092;2022-11-20T03:01:04;6.03;;;3.57;;
51558;SDS011;61650;48.882;2.092;2022-11-20T03:03:29;6.30;;;3.67;;
51558;SDS011;61650;48.882;2.092;2022-11-20T03:05:55;6.47;;;4.20;;
51558;SDS011;61650;48.882;2.092;2022-11-20T03:08:23;5.45;;;3.80;;
51558;SDS011;61650;48.882;2.092;2022-11-20T03:10:48;4.47;;;3.50;;
51558;SDS011;61650;48.882;2.092;2022-11-20T03:13:14;7.47;;;3.50;;
51558;SDS011;61650;48.882;2.092;2022-11-20T03:15:39;5.03;;;3.27;;
51558;SDS011;61650;48.882;2.092;2022-11-20T03:18:05;6.37;;;3.27;;
51558;SDS011;61650;48.882;2.092;2022-11-20T03:20:31;5.33;;;3.90;;
51558;SDS011;61650;48.882;2.092;2022-11-20T03:22:58;7.18;;;3.22;;
51558;SDS011;61650;48.882;2.092;2022-11-20T03:25:23;5.30;;;3.30;;
51558;SDS011;61650;48.882;2.092;2022-11-20T03:27:49;5.13;;;3.50;;
51558;SDS011;61650;48.882;2.092;2022-11-20T03:30:14;5.73;;;3.43;;
51558;SDS011;61650;48.882;2.092;2022-11-20T03:32:40;5.73;;;3.30;;
51558;SDS011;61650;48.882;2.092;2022-11-20T03:35:06;5.80;;;3.30;;
51558;SDS011;61650;48.882;2.092;2022-11-20T03:37:32;10.40;;;3.17;;
51558;SDS011;61650;48.882;2.092;2022-11-20T03:39:58;3.57;;;3.20;;
51558;SDS011;61650;48.882;2.092;2022-11-20T03:42:23;4.57;;;3.93;;
51558;SDS011;61650;48.882;2.092;2022-11-20T03:45:16;7.25;;;3.60;;
51558;SDS011;61650;48.882;2.092;2022-11-20T03:47:43;6.55;;;3.78;;
51558;SDS011;61650;48.882;2.092;2022-11-20T03:50:09;5.07;;;3.35;;
51558;SDS011;61650;48.882;2.092;2022-11-20T03:52:37;6.30;;;3.03;;
51558;SDS011;61650;48.882;2.092;2022-11-20T03:55:03;6.78;;;3.45;;
51558;SDS011;61650;48.882;2.092;2022-11-20T03:57:30;3.45;;;2.90;;
51558;SDS011;61650;48.882;2.092;2022-11-20T03:59:55;6.00;;;3.67;;
51558;SDS011;61650;48.882;2.092;2022-11-20T04:02:21;4.00;;;3.33;;
51558;SDS011;61650;48.882;2.092;2022-11-20T04:04:47;5.30;;;3.50;;
51558;SDS011;61650;48.882;2.092;2022-11-20T04:07:12;7.93;;;3.30;;
51558;SDS011;61650;48.882;2.092;2022-11-20T04:09:38;5.83;;;3.83;;
51558;SDS011;61650;48.882;2.092;2022-11-20T04:12:03;4.10;;;3.43;;
51558;SDS011;61650;48.882;2.092;2022-11-20T04:14:29;5.80;;;3.67;;
51558;SDS011;61650;48.882;2.092;2022-11-20T04:16:55;8.87;;;3.50;;
51558;SDS011;61650;48.882;2.092;2022-11-20T04:19:20;4.00;;;3.00;;
51558;SDS011;61650;48.882;2.092;2022-11-20T04:21:46;5.50;;;3.47;;
51558;SDS011;61650;48.882;2.092;2022-11-20T04:24:11;7.57;;;3.50;;
51558;SDS011;61650;48.882;2.092;2022-11-20T04:26:37;4.77;;;3.47;;
51558;SDS011;61650;48.882;2.092;2022-11-20T04:29:03;5.67;;;3.37;;
51558;SDS011;61650;48.882;2.092;2022-11-20T04:31:31;6.25;;;3.35;;
51558;SDS011;61650;48.882;2.092;2022-11-20T04:34:02;7.55;;;3.35;;
51558;SDS011;61650;48.882;2.092;2022-11-20T04:36:29;5.63;;;3.25;;
51558;SDS011;61650;48.882;2.092;2022-11-20T04:38:56;6.28;;;3.90;;
51558;SDS011;61650;48.882;2.092;2022-11-20T04:41:23;3.88;;;2.70;;
51558;SDS011;61650;48.882;2.092;2022-11-20T04:43:52;9.52;;;3.25;;
51558;SDS011;61650;48.882;2.092;2022-11-20T04:46:24;4.57;;;3.10;;
51558;SDS011;61650;48.882;2.092;2022-11-20T04:48:51;5.03;;;3.50;;
51558;SDS011;61650;48.882;2.092;2022-11-20T04:51:17;6.57;;;3.50;;
51558;SDS011;61650;48.882;2.092;2022-11-20T04:53:43;7.40;;;4.83;;
51558;SDS011;61650;48.882;2.092;2022-11-20T04:56:10;4.03;;;3.40;;
51558;SDS011;61650;48.882;2.092;2022-11-20T04:58:36;6.65;;;3.10;;
51558;SDS011;61650;48.882;2.092;2022-11-20T05:01:12;3.80;;;3.38;;
51558;SDS011;61650;48.882;2.092;2022-11-20T05:03:43;4.88;;;3.40;;
51558;SDS011;61650;48.882;2.092;2022-11-20T05:06:10;4.90;;;3.30;;
51558;SDS011;61650;48.882;2.092;2022-11-20T05:08:37;4.85;;;3.10;;
51558;SDS011;61650;48.882;2.092;2022-11-20T05:11:03;4.53;;;3.20;;
51558;SDS011;61650;48.882;2.092;2022-11-20T05:13:31;4.38;;;3.38;;
51558;SDS011;61650;48.882;2.092;2022-11-20T05:16:00;5.33;;;3.40;;
51558;SDS011;61650;48.882;2.092;2022-11-20T05:18:30;5.63;;;2.83;;
51558;SDS011;61650;48.882;2.092;2022-11-20T05:20:57;4.97;;;2.83;;
51558;SDS011;61650;48.882;2.092;2022-11-20T05:23:23;2.97;;;2.67;;
51558;SDS011;61650;48.882;2.092;2022-11-20T05:25:51;4.00;;;3.15;;
51558;SDS011;61650;48.882;2.092;2022-11-20T05:28:18;8.07;;;2.83;;
51558;SDS011;61650;48.882;2.092;2022-11-20T05:30:43;3.57;;;3.00;;
51558;SDS011;61650;48.882;2.092;2022-11-20T05:33:09;4.97;;;2.80;;
51558;SDS011;61650;48.882;2.092;2022-11-20T05:35:34;4.27;;;2.93;;
51558;SDS011;61650;48.882;2.092;2022-11-20T05:38:00;5.70;;;3.13;;
51558;SDS011;61650;48.882;2.092;2022-11-20T05:40:25;4.73;;;2.80;;
51558;SDS011;61650;48.882;2.092;2022-11-20T05:42:51;3.30;;;2.90;;
51558;SDS011;61650;48.882;2.092;2022-11-20T05:45:16;4.03;;;2.93;;
51558;SDS011;61650;48.882;2.092;2022-11-20T05:47:42;4.77;;;3.10;;
51558;SDS011;61650;48.882;2.092;2022-11-20T05:50:08;3.60;;;2.90;;
51558;SDS011;61650;48.882;2.092;2022-11-20T05:52:33;3.73;;;2.50;;
51558;SDS011;61650;48.882;2.092;2022-11-20T05:54:59;5.13;;;2.97;;
51558;SDS011;61650;48.882;2.092;2022-11-20T05:57:24;4.30;;;2.77;;
51558;SDS011;61650;48.882;2.092;2022-11-20T05:59:50;3.00;;;2.70;;
51558;SDS011;61650;48.882;2.092;2022-11-20T06:02:16;7.53;;;3.13;;
51558;SDS011;61650;48.882;2.092;2022-11-20T06:04:41;3.33;;;2.73;;
51558;SDS011;61650;48.882;2.092;2022-11-20T06:07:07;4.20;;;2.83;;
51558;SDS011;61650;48.882;2.092;2022-11-20T06:09:32;4.90;;;3.10;;
51558;SDS011;61650;48.882;2.092;2022-11-20T06:11:58;3.47;;;2.73;;
51558;SDS011;61650;48.882;2.092;2022-11-20T06:14:24;2.93;;;2.63;;
51558;SDS011;61650;48.882;2.092;2022-11-20T06:16:49;4.80;;;3.20;;
51558;SDS011;61650;48.882;2.092;2022-11-20T06:19:15;4.20;;;2.70;;
51558;SDS011;61650;48.882;2.092;2022-11-20T06:21:40;7.37;;;3.10;;
51558;SDS011;61650;48.882;2.092;2022-11-20T06:24:06;5.27;;;3.10;;
51558;SDS011;61650;48.882;2.092;2022-11-20T06:26:34;3.45;;;2.95;;
51558;SDS011;61650;48.882;2.092;2022-11-20T06:28:59;4.83;;;2.83;;
51558;SDS011;61650;48.882;2.092;2022-11-20T06:31:25;6.43;;;3.40;;
51558;SDS011;61650;48.882;2.092;2022-11-20T06:33:51;4.05;;;3.22;;
51558;SDS011;61650;48.882;2.092;2022-11-20T06:36:18;6.05;;;3.35;;
51558;SDS011;61650;48.882;2.092;2022-11-20T06:38:45;6.60;;;2.85;;
51558;SDS011;61650;48.882;2.092;2022-11-20T06:41:20;8.40;;;3.03;;
51558;SDS011;61650;48.882;2.092;2022-11-20T06:43:47;5.28;;;3.40;;
51558;SDS011;61650;48.882;2.092;2022-11-20T06:46:13;3.63;;;2.87;;
51558;SDS011;61650;48.882;2.092;2022-11-20T06:48:40;6.43;;;3.28;;
51558;SDS011;61650;48.882;2.092;2022-11-20T06:51:06;5.13;;;3.13;;
51558;SDS011;61650;48.882;2.092;2022-11-20T06:53:33;6.35;;;3.10;;
51558;SDS011;61650;48.882;2.092;2022-11-20T06:55:59;3.55;;;2.60;;
51558;SDS011;61650;48.882;2.092;2022-11-20T06:58:28;9.20;;;2.90;;
51558;SDS011;61650;48.882;2.092;2022-11-20T07:01:05;6.97;;;3.97;;
51558;SDS011;61650;48.882;2.092;2022-11-20T07:03:32;5.45;;;3.28;;
51558;SDS011;61650;48.882;2.092;2022-11-20T07:05:58;5.67;;;3.00;;
51558;SDS011;61650;48.882;2.092;2022-11-20T07:08:25;7.43;;;3.40;;
51558;SDS011;61650;48.882;2.092;2022-11-20T07:10:51;4.57;;;3.03;;
51558;SDS011;61650;48.882;2.092;2022-11-20T07:13:17;4.30;;;3.03;;
51558;SDS011;61650;48.882;2.092;2022-11-20T07:15:42;3.87;;;2.87;;
51558;SDS011;61650;48.882;2.092;2022-11-20T07:18:08;4.10;;;3.13;;
51558;SDS011;61650;48.882;2.092;2022-11-20T07:20:33;4.10;;;2.73;;
51558;SDS011;61650;48.882;2.092;2022-11-20T07:22:59;3.83;;;2.77;;
51558;SDS011;61650;48.882;2.092;2022-11-20T07:25:25;5.30;;;3.40;;
51558;SDS011;61650;48.882;2.092;2022-11-20T07:27:52;6.32;;;3.30;;
51558;SDS011;61650;48.882;2.092;2022-11-20T07:30:18;3.60;;;3.20;;
51558;SDS011;61650;48.882;2.092;2022-11-20T07:32:47;5.03;;;3.10;;
51558;SDS011;61650;48.882;2.092;2022-11-20T07:35:15;4.72;;;2.85;;
51558;SDS011;61650;48.882;2.092;2022-11-20T07:37:40;4.93;;;3.27;;
51558;SDS011;61650;48.882;2.092;2022-11-20T07:40:06;7.80;;;3.40;;
51558;SDS011;61650;48.882;2.092;2022-11-20T07:42:35;6.80;;;3.20;;
51558;SDS011;61650;48.882;2.092;2022-11-20T07:45:00;8.75;;;2.95;;
51558;SDS011;61650;48.882;2.092;2022-11-20T07:47:26;6.00;;;3.20;;
51558;SDS011;61650;48.882;2.092;2022-11-20T07:49:51;5.33;;;3.20;;
51558;SDS011;61650;48.882;2.092;2022-11-20T07:52:17;4.50;;;2.60;;
51558;SDS011;61650;48.882;2.092;2022-11-20T07:54:43;3.93;;;2.90;;
51558;SDS011;61650;48.882;2.092;2022-11-20T07:57:08;6.00;;;2.43;;
51558;SDS011;61650;48.882;2.092;2022-11-20T07:59:34;4.77;;;2.70;;
51558;SDS011;61650;48.882;2.092;2022-11-20T08:01:59;5.83;;;3.33;;
51558;SDS011;61650;48.882;2.092;2022-11-20T08:04:25;4.27;;;3.07;;
51558;SDS011;61650;48.882;2.092;2022-11-20T08:06:54;4.83;;;2.90;;
51558;SDS011;61650;48.882;2.092;2022-11-20T08:09:19;5.03;;;3.22;;
51558;SDS011;61650;48.882;2.092;2022-11-20T08:11:45;5.03;;;3.10;;
51558;SDS011;61650;48.882;2.092;2022-11-20T08:14:29;3.90;;;3.20;;
51558;SDS011;61650;48.882;2.092;2022-11-20T08:16:54;5.77;;;3.00;;
51558;SDS011;61650;48.882;2.092;2022-11-20T08:19:20;4.40;;;3.10;;
51558;SDS011;61650;48.882;2.092;2022-11-20T08:21:46;4.17;;;3.53;;
51558;SDS011;61650;48.882;2.092;2022-11-20T08:24:11;5.57;;;3.40;;
51558;SDS011;61650;48.882;2.092;2022-11-20T08:26:38;3.60;;;3.17;;
51558;SDS011;61650;48.882;2.092;2022-11-20T08:29:04;3.47;;;2.70;;
51558;SDS011;61650;48.882;2.092;2022-11-20T08:31:30;4.93;;;3.07;;
51558;SDS011;61650;48.882;2.092;2022-11-20T08:33:56;7.38;;;2.88;;
51558;SDS011;61650;48.882;2.092;2022-11-20T08:36:23;3.90;;;3.10;;
51558;SDS011;61650;48.882;2.092;2022-11-20T08:38:49;5.93;;;3.67;;
51558;SDS011;61650;48.882;2.092;2022-11-20T08:41:16;4.88;;;3.10;;
51558;SDS011;61650;48.882;2.092;2022-11-20T08:43:49;7.78;;;3.33;;
51558;SDS011;61650;48.882;2.092;2022-11-20T08:46:15;4.40;;;3.20;;
51558;SDS011;61650;48.882;2.092;2022-11-20T08:48:41;4.90;;;3.45;;
51558;SDS011;61650;48.882;2.092;2022-11-20T08:51:07;5.03;;;3.27;;
51558;SDS011;61650;48.882;2.092;2022-11-20T08:53:33;6.30;;;4.00;;
51558;SDS011;61650;48.882;2.092;2022-11-20T08:55:58;5.60;;;3.67;;
51558;SDS011;61650;48.882;2.092;2022-11-20T08:58:24;6.20;;;3.87;;
51558;SDS011;61650;48.882;2.092;2022-11-20T09:00:51;6.45;;;4.32;;
51558;SDS011;61650;48.882;2.092;2022-11-20T09:03:16;6.17;;;4.20;;
51558;SDS011;61650;48.882;2.092;2022-11-20T09:05:42;4.93;;;3.63;;
51558;SDS011;61650;48.882;2.092;2022-11-20T09:08:07;5.03;;;4.43;;
51558;SDS011;61650;48.882;2.092;2022-11-20T09:10:33;9.57;;;4.80;;
51558;SDS011;61650;48.882;2.092;2022-11-20T09:12:59;6.23;;;4.47;;
51558;SDS011;61650;48.882;2.092;2022-11-20T09:15:25;6.90;;;4.30;;
51558;SDS011;61650;48.882;2.092;2022-11-20T09:17:54;6.90;;;4.90;;
51558;SDS011;61650;48.882;2.092;2022-11-20T09:20:20;4.85;;;3.80;;
51558;SDS011;61650;48.882;2.092;2022-11-20T09:22:46;5.93;;;4.07;;
51558;SDS011;61650;48.882;2.092;2022-11-20T09:25:12;6.47;;;4.30;;
51558;SDS011;61650;48.882;2.092;2022-11-20T09:27:37;8.20;;;5.10;;
51558;SDS011;61650;48.882;2.092;2022-11-20T09:30:03;6.70;;;4.77;;
51558;SDS011;61650;48.882;2.092;2022-11-20T09:32:29;7.78;;;4.45;;
51558;SDS011;61650;48.882;2.092;2022-11-20T09:34:55;8.70;;;6.10;;
51558;SDS011;61650;48.882;2.092;2022-11-20T09:37:20;6.37;;;5.70;;
51558;SDS011;61650;48.882;2.092;2022-11-20T09:39:46;8.07;;;5.90;;
51558;SDS011;61650;48.882;2.092;2022-11-20T09:42:47;6.33;;;4.80;;
51558;SDS011;61650;48.882;2.092;2022-11-20T09:53:16;6.25;;;5.15;;
51558;SDS011;61650;48.882;2.092;2022-11-20T09:55:45;8.18;;;5.50;;
51558;SDS011;61650;48.882;2.092;2022-11-20T10:00:55;6.00;;;5.40;;
51558;SDS011;61650;48.882;2.092;2022-11-20T10:04:26;10.23;;;5.35;;
51558;SDS011;61650;48.882;2.092;2022-11-20T10:09:31;7.57;;;4.40;;
51558;SDS011;61650;48.882;2.092;2022-11-20T10:23:32;4.70;;;4.00;;
51558;SDS011;61650;48.882;2.092;2022-11-20T10:31:33;8.77;;;7.90;;
51558;SDS011;61650;48.882;2.092;2022-11-20T10:34:03;8.02;;;6.70;;
51558;SDS011;61650;48.882;2.092;2022-11-20T10:36:55;5.75;;;5.15;;
51558;SDS011;61650;48.882;2.092;2022-11-20T10:39:26;8.02;;;5.50;;
51558;SDS011;61650;48.882;2.092;2022-11-20T10:42:00;5.05;;;4.53;;
51558;SDS011;61650;48.882;2.092;2022-11-20T10:44:27;7.93;;;5.20;;
51558;SDS011;61650;48.882;2.092;2022-11-20T10:47:16;6.63;;;4.82;;
51558;SDS011;61650;48.882;2.092;2022-11-20T10:49:44;6.80;;;4.35;;
51558;SDS011;61650;48.882;2.092;2022-11-20T10:52:22;7.30;;;4.20;;
51558;SDS011;61650;48.882;2.092;2022-11-20T11:00:45;6.15;;;3.65;;
51558;SDS011;61650;48.882;2.092;2022-11-20T11:03:19;7.20;;;4.80;;
51558;SDS011;61650;48.882;2.092;2022-11-20T11:05:51;8.15;;;6.53;;
51558;SDS011;61650;48.882;2.092;2022-11-20T11:08:24;6.00;;;5.50;;
51558;SDS011;61650;48.882;2.092;2022-11-20T11:10:57;3.28;;;2.67;;
51558;SDS011;61650;48.882;2.092;2022-11-20T11:13:27;5.18;;;4.68;;
51558;SDS011;61650;48.882;2.092;2022-11-20T11:15:54;5.65;;;5.05;;
51558;SDS011;61650;48.882;2.092;2022-11-20T11:20:53;5.90;;;4.85;;
51558;SDS011;61650;48.882;2.092;2022-11-20T11:23:28;7.80;;;5.70;;
51558;SDS011;61650;48.882;2.092;2022-11-20T11:26:00;5.60;;;4.20;;
51558;SDS011;61650;48.882;2.092;2022-11-20T11:28:27;4.45;;;4.05;;
51558;SDS011;61650;48.882;2.092;2022-11-20T11:30:54;4.05;;;3.67;;
51558;SDS011;61650;48.882;2.092;2022-11-20T11:33:49;3.20;;;2.80;;
51558;SDS011;61650;48.882;2.092;2022-11-20T11:36:20;2.65;;;2.45;;
51558;SDS011;61650;48.882;2.092;2022-11-20T11:38:50;4.30;;;3.50;;
51558;SDS011;61650;48.882;2.092;2022-11-20T11:41:22;6.10;;;4.20;;
51558;SDS011;61650;48.882;2.092;2022-11-20T11:43:56;4.05;;;3.65;;
51558;SDS011;61650;48.882;2.092;2022-11-20T11:46:44;5.22;;;3.95;;
51558;SDS011;61650;48.882;2.092;2022-11-20T11:49:19;6.40;;;3.40;;
51558;SDS011;61650;48.882;2.092;2022-11-20T11:54:33;3.33;;;2.95;;
51558;SDS011;61650;48.882;2.092;2022-11-20T12:00:04;3.95;;;3.65;;
51558;SDS011;61650;48.882;2.092;2022-11-20T12:07:45;4.47;;;3.75;;
51558;SDS011;61650;48.882;2.092;2022-11-20T12:10:17;3.70;;;3.40;;
51558;SDS011;61650;48.882;2.092;2022-11-20T12:13:18;3.00;;;2.50;;
51558;SDS011;61650;48.882;2.092;2022-11-20T12:15:55;3.20;;;2.90;;
51558;SDS011;61650;48.882;2.092;2022-11-20T12:18:21;5.20;;;4.13;;
51558;SDS011;61650;48.882;2.092;2022-11-20T12:29:15;4.60;;;3.50;;
51558;SDS011;61650;48.882;2.092;2022-11-20T12:31:51;4.35;;;3.90;;
51558;SDS011;61650;48.882;2.092;2022-11-20T12:34:34;4.97;;;4.10;;
51558;SDS011;61650;48.882;2.092;2022-11-20T12:40:09;5.70;;;4.65;;
51558;SDS011;61650;48.882;2.092;2022-11-20T12:42:45;7.50;;;5.18;;
51558;SDS011;61650;48.882;2.092;2022-11-20T12:46:05;6.68;;;4.90;;
51558;SDS011;61650;48.882;2.092;2022-11-20T12:48:58;5.40;;;4.28;;
51558;SDS011;61650;48.882;2.092;2022-11-20T13:05:20;6.75;;;4.10;;
51558;SDS011;61650;48.882;2.092;2022-11-20T13:07:50;5.75;;;4.63;;
51558;SDS011;61650;48.882;2.092;2022-11-20T13:10:19;9.00;;;5.90;;
51558;SDS011;61650;48.882;2.092;2022-11-20T13:13:08;10.50;;;8.27;;
51558;SDS011;61650;48.882;2.092;2022-11-20T13:15:45;7.30;;;6.40;;
51558;SDS011;61650;48.882;2.092;2022-11-20T13:18:20;8.50;;;6.95;;
51558;SDS011;61650;48.882;2.092;2022-11-20T13:20:46;7.10;;;6.00;;
51558;SDS011;61650;48.882;2.092;2022-11-20T13:23:35;7.15;;;5.00;;
51558;SDS011;61650;48.882;2.092;2022-11-20T13:26:13;7.03;;;5.65;;
51558;SDS011;61650;48.882;2.092;2022-11-20T13:28:48;6.18;;;4.75;;
51558;SDS011;61650;48.882;2.092;2022-11-20T13:31:28;7.47;;;5.40;;
51558;SDS011;61650;48.882;2.092;2022-11-20T13:33:56;8.30;;;5.30;;
51558;SDS011;61650;48.882;2.092;2022-11-20T13:36:24;5.78;;;4.93;;
51558;SDS011;61650;48.882;2.092;2022-11-20T13:38:52;6.07;;;4.90;;
51558;SDS011;61650;48.882;2.092;2022-11-20T13:41:25;6.10;;;5.10;;
51558;SDS011;61650;48.882;2.092;2022-11-20T13:44:44;5.30;;;4.15;;
51558;SDS011;61650;48.882;2.092;2022-11-20T13:47:02;5.47;;;4.17;;
51558;SDS011;61650;48.882;2.092;2022-11-20T13:49:33;7.00;;;5.60;;
51558;SDS011;61650;48.882;2.092;2022-11-20T14:02:41;5.13;;;4.17;;
51558;SDS011;61650;48.882;2.092;2022-11-20T14:05:21;10.30;;;5.00;;
51558;SDS011;61650;48.882;2.092;2022-11-20T14:07:48;5.63;;;3.90;;
51558;SDS011;61650;48.882;2.092;2022-11-20T14:10:22;7.33;;;5.20;;
51558;SDS011;61650;48.882;2.092;2022-11-20T14:12:52;10.60;;;8.50;;
51558;SDS011;61650;48.882;2.092;2022-11-20T14:15:26;9.10;;;7.23;;
51558;SDS011;61650;48.882;2.092;2022-11-20T14:17:52;9.40;;;6.50;;
51558;SDS011;61650;48.882;2.092;2022-11-20T14:20:17;9.83;;;7.17;;
51558;SDS011;61650;48.882;2.092;2022-11-20T14:22:51;7.67;;;5.00;;
51558;SDS011;61650;48.882;2.092;2022-11-20T14:27:43;10.90;;;9.50;;
51558;SDS011;61650;48.882;2.092;2022-11-20T14:30:22;10.33;;;7.00;;
51558;SDS011;61650;48.882;2.092;2022-11-20T14:32:50;17.97;;;11.07;;
51558;SDS011;61650;48.882;2.092;2022-11-20T14:37:52;8.10;;;4.40;;
51558;SDS011;61650;48.882;2.092;2022-11-20T14:40:25;7.33;;;5.00;;
51558;SDS011;61650;48.882;2.092;2022-11-20T14:42:51;9.27;;;3.60;;
51558;SDS011;61650;48.882;2.092;2022-11-20T14:45:17;7.50;;;4.00;;
51558;SDS011;61650;48.882;2.092;2022-11-20T14:47:44;6.53;;;3.77;;
51558;SDS011;61650;48.882;2.092;2022-11-20T14:50:18;6.90;;;4.80;;
51558;SDS011;61650;48.882;2.092;2022-11-20T14:52:54;7.70;;;4.43;;
51558;SDS011;61650;48.882;2.092;2022-11-20T14:58:06;5.40;;;3.30;;
51558;SDS011;61650;48.882;2.092;2022-11-20T15:00:56;14.70;;;4.43;;
51558;SDS011;61650;48.882;2.092;2022-11-20T15:03:31;5.63;;;3.60;;
51558;SDS011;61650;48.882;2.092;2022-11-20T15:06:01;9.13;;;4.50;;
51558;SDS011;61650;48.882;2.092;2022-11-20T15:08:27;8.57;;;3.60;;
51558;SDS011;61650;48.882;2.092;2022-11-20T15:10:53;8.00;;;3.20;;
51558;SDS011;61650;48.882;2.092;2022-11-20T15:13:29;8.20;;;3.80;;
51558;SDS011;61650;48.882;2.092;2022-11-20T15:15:58;10.30;;;3.30;;
51558;SDS011;61650;48.882;2.092;2022-11-20T15:18:29;9.23;;;3.90;;
51558;SDS011;61650;48.882;2.092;2022-11-20T15:21:02;11.03;;;3.73;;
51558;SDS011;61650;48.882;2.092;2022-11-20T15:23:29;7.27;;;3.80;;
51558;SDS011;61650;48.882;2.092;2022-11-20T15:25:54;8.30;;;3.00;;
51558;SDS011;61650;48.882;2.092;2022-11-20T15:28:29;8.27;;;3.90;;
51558;SDS011;61650;48.882;2.092;2022-11-20T15:30:56;7.33;;;3.10;;
51558;SDS011;61650;48.882;2.092;2022-11-20T15:33:22;5.80;;;2.30;;
51558;SDS011;61650;48.882;2.092;2022-11-20T15:35:48;9.77;;;2.10;;
51558;SDS011;61650;48.882;2.092;2022-11-20T15:38:13;7.73;;;2.50;;
51558;SDS011;61650;48.882;2.092;2022-11-20T15:40:39;8.43;;;2.90;;
51558;SDS011;61650;48.882;2.092;2022-11-20T15:43:05;4.03;;;1.83;;
51558;SDS011;61650;48.882;2.092;2022-11-20T15:45:42;8.43;;;2.73;;
51558;SDS011;61650;48.882;2.092;2022-11-20T15:48:18;8.90;;;3.77;;
51558;SDS011;61650;48.882;2.092;2022-11-20T15:51:20;9.20;;;3.27;;
51558;SDS011;61650;48.882;2.092;2022-11-20T15:53:45;8.57;;;3.50;;
51558;SDS011;61650;48.882;2.092;2022-11-20T15:56:12;8.70;;;3.77;;
51558;SDS011;61650;48.882;2.092;2022-11-20T15:58:38;7.20;;;3.70;;
51558;SDS011;61650;48.882;2.092;2022-11-20T16:01:04;9.67;;;4.00;;
51558;SDS011;61650;48.882;2.092;2022-11-20T16:03:30;5.93;;;3.23;;
51558;SDS011;61650;48.882;2.092;2022-11-20T16:05:56;7.30;;;3.57;;
51558;SDS011;61650;48.882;2.092;2022-11-20T16:08:22;6.87;;;4.40;;
51558;SDS011;61650;48.882;2.092;2022-11-20T16:10:47;7.00;;;5.00;;
51558;SDS011;61650;48.882;2.092;2022-11-20T16:13:14;6.93;;;4.43;;
51558;SDS011;61650;48.882;2.092;2022-11-20T16:15:59;6.63;;;5.23;;
51558;SDS011;61650;48.882;2.092;2022-11-20T16:18:30;7.17;;;4.93;;
51558;SDS011;61650;48.882;2.092;2022-11-20T16:20:56;7.63;;;4.90;;
51558;SDS011;61650;48.882;2.092;2022-11-20T16:23:22;10.00;;;5.90;;
51558;SDS011;61650;48.882;2.092;2022-11-20T16:25:51;9.30;;;5.77;;
51558;SDS011;61650;48.882;2.092;2022-11-20T16:28:17;11.10;;;5.40;;
51558;SDS011;61650;48.882;2.092;2022-11-20T16:30:43;10.10;;;5.45;;
51558;SDS011;61650;48.882;2.092;2022-11-20T16:33:13;10.82;;;5.50;;
51558;SDS011;61650;48.882;2.092;2022-11-20T16:35:40;9.63;;;5.30;;
51558;SDS011;61650;48.882;2.092;2022-11-20T16:38:06;9.80;;;7.40;;